Time;durP1;ratioP1;P1;durP2;ratioP2;P2;SDS_P1;SDS_P2;PMS_P1;PMS_P2;Temp;Humidity;BMP_temperature;BMP_pressure;BME280_temperature;BME280_humidity;BME280_pressure;Samples;Min_cycle;Max_cycle;Signal;HPM_P1;HPM_P2
2022/12/30 00:02:54;;;;;;;4.32;1.60;;;9.60;99.90;;;;;;10520849;28;20039;-65
2022/12/30 00:07:55;;;;;;;3.17;1.10;;;9.40;99.90;;;;;;10527580;28;20121;-64
2022/12/30 00:34:45;;;;;;;7.47;1.73;;;9.40;99.90;;;;;;10516390;28;20511;-65
2022/12/30 00:39:46;;;;;;;4.53;1.80;;;9.40;99.90;;;;;;10515532;28;20261;-64
2022/12/30 00:44:47;;;;;;;3.80;1.38;;;9.30;99.90;;;;;;10523532;28;20437;-64
2022/12/30 01:00:26;;;;;;;5.38;1.38;;;9.30;99.90;;;;;;10521884;28;20012;-64
2022/12/30 01:05:26;;;;;;;6.22;1.90;;;9.30;99.90;;;;;;10524113;28;20072;-65
2022/12/30 01:10:27;;;;;;;2.90;1.38;;;9.30;99.90;;;;;;10526888;28;20434;-64
2022/12/30 01:15:27;;;;;;;3.65;1.10;;;9.40;99.90;;;;;;10515615;28;20086;-65
2022/12/30 01:20:28;;;;;;;5.22;1.58;;;9.20;99.90;;;;;;10515234;28;20064;-64
2022/12/30 01:25:29;;;;;;;5.78;1.23;;;9.20;99.90;;;;;;10513573;28;20012;-65
2022/12/30 01:30:29;;;;;;;3.65;1.10;;;9.20;99.90;;;;;;10523520;28;20024;-65
2022/12/30 01:35:31;;;;;;;7.57;1.35;;;9.20;99.90;;;;;;10525234;28;20024;-66
2022/12/30 01:40:41;;;;;;;5.65;1.10;;;9.20;99.90;;;;;;10525752;28;20012;-65
2022/12/30 01:45:51;;;;;;;4.18;1.25;;;9.20;99.90;;;;;;10525241;28;20055;-65
2022/12/30 01:50:55;;;;;;;3.92;1.20;;;9.20;99.90;;;;;;10523194;28;20036;-65
2022/12/30 01:56:02;;;;;;;3.97;0.90;;;9.20;99.90;;;;;;10523634;28;20020;-65
2022/12/30 02:01:02;;;;;;;4.03;1.08;;;9.20;99.90;;;;;;10521030;28;20020;-64
2022/12/30 02:06:04;;;;;;;4.22;1.73;;;9.20;99.90;;;;;;10513092;28;20519;-64
2022/12/30 02:11:06;;;;;;;4.32;1.40;;;9.10;99.90;;;;;;10513385;28;20028;-64
2022/12/30 02:16:58;;;;;;;6.47;1.10;;;9.20;99.90;;;;;;10523755;28;20039;-64
2022/12/30 02:22:32;;;;;;;2.33;0.95;;;9.20;99.90;;;;;;10495347;28;20096;-64
2022/12/30 02:28:11;;;;;;;2.75;1.10;;;9.10;99.90;;;;;;10515155;28;20053;-64
2022/12/30 02:33:26;;;;;;;4.60;1.52;;;9.10;99.90;;;;;;10508211;28;20498;-64
2022/12/30 02:38:39;;;;;;;4.22;1.00;;;9.10;99.90;;;;;;10507594;28;20059;-65
2022/12/30 02:49:04;;;;;;;3.85;1.40;;;9.10;99.90;;;;;;10513542;28;20016;-65
2022/12/30 02:54:05;;;;;;;5.38;0.95;;;9.10;99.90;;;;;;10516697;28;20025;-64
2022/12/30 03:04:52;;;;;;;5.03;1.38;;;9.10;99.90;;;;;;10512955;28;20015;-64
2022/12/30 03:15:25;;;;;;;2.70;1.17;;;9.00;99.90;;;;;;10521856;28;20135;-65
2022/12/30 03:20:27;;;;;;;6.20;1.00;;;9.00;99.90;;;;;;10525755;28;20024;-65
2022/12/30 03:30:57;;;;;;;4.47;1.02;;;9.00;99.90;;;;;;10520953;28;20071;-65
2022/12/30 03:36:19;;;;;;;4.63;1.23;;;9.00;99.90;;;;;;10512984;28;20020;-65
2022/12/30 03:41:21;;;;;;;3.13;1.48;;;9.00;99.90;;;;;;10526229;28;20027;-64
2022/12/30 03:46:29;;;;;;;4.13;0.98;;;9.00;99.90;;;;;;10532153;28;20557;-65
2022/12/30 03:51:30;;;;;;;3.03;0.97;;;9.00;99.90;;;;;;10524178;28;20028;-64
2022/12/30 03:56:30;;;;;;;4.05;1.02;;;9.00;99.90;;;;;;10521921;28;20459;-65
2022/12/30 04:01:31;;;;;;;5.97;1.33;;;8.90;99.90;;;;;;10523365;28;20452;-64
2022/12/30 04:06:31;;;;;;;3.58;1.17;;;8.90;99.90;;;;;;10530975;28;20257;-64
2022/12/30 04:11:32;;;;;;;3.08;1.48;;;9.00;99.90;;;;;;10529980;28;20035;-65
2022/12/30 04:16:33;;;;;;;2.53;1.00;;;9.70;99.90;;;;;;10519448;28;20016;-64
2022/12/30 04:21:33;;;;;;;5.03;1.38;;;8.90;99.90;;;;;;10524962;28;20477;-65
2022/12/30 04:26:34;;;;;;;5.55;1.10;;;8.90;99.90;;;;;;10518054;28;20380;-64
2022/12/30 04:31:35;;;;;;;4.25;1.15;;;8.90;99.90;;;;;;10514501;28;20035;-65
2022/12/30 04:36:35;;;;;;;4.55;1.35;;;8.80;99.90;;;;;;10518960;28;20066;-64
2022/12/30 04:41:36;;;;;;;4.97;1.05;;;8.80;99.90;;;;;;10520564;28;20031;-64
2022/12/30 04:46:36;;;;;;;3.15;1.00;;;8.80;99.90;;;;;;10517171;28;20031;-64
2022/12/30 04:51:37;;;;;;;2.58;1.40;;;8.80;99.90;;;;;;10520590;28;20066;-64
2022/12/30 04:56:37;;;;;;;4.43;1.70;;;8.80;99.90;;;;;;10519021;28;20096;-65
2022/12/30 05:01:38;;;;;;;4.13;0.93;;;8.80;99.90;;;;;;10526930;28;20402;-65
2022/12/30 05:06:39;;;;;;;3.47;1.23;;;8.80;99.90;;;;;;10526858;28;20009;-64
2022/12/30 05:11:39;;;;;;;4.28;1.30;;;8.70;99.90;;;;;;10528569;28;20229;-64
2022/12/30 05:16:40;;;;;;;4.10;1.17;;;8.70;99.90;;;;;;10529339;28;20017;-64
2022/12/30 05:21:40;;;;;;;3.28;1.10;;;8.70;99.90;;;;;;10525754;28;20021;-64
2022/12/30 05:26:41;;;;;;;2.33;1.30;;;8.70;99.90;;;;;;10514475;28;20534;-64
2022/12/30 05:31:42;;;;;;;4.38;1.15;;;8.80;99.90;;;;;;10519595;28;20031;-65
2022/12/30 05:36:43;;;;;;;8.52;1.50;;;8.70;99.90;;;;;;10526741;28;20016;-65
2022/12/30 05:41:44;;;;;;;3.33;1.45;;;8.70;99.90;;;;;;10521167;28;20365;-64
2022/12/30 05:46:44;;;;;;;3.80;1.30;;;8.60;99.90;;;;;;10518155;28;20103;-64
2022/12/30 05:51:45;;;;;;;3.03;1.23;;;8.70;99.90;;;;;;10514751;28;20032;-64
2022/12/30 05:56:46;;;;;;;4.60;1.17;;;8.70;99.90;;;;;;10514154;28;20317;-64
2022/12/30 06:01:47;;;;;;;4.15;0.80;;;8.60;99.90;;;;;;10526653;28;20119;-64
2022/12/30 06:06:47;;;;;;;3.03;1.20;;;8.60;99.90;;;;;;10526150;28;20087;-65
2022/12/30 06:11:48;;;;;;;4.78;1.45;;;8.60;99.90;;;;;;10526652;28;20024;-64
2022/12/30 06:16:49;;;;;;;3.83;1.25;;;8.60;99.90;;;;;;10516984;28;20084;-64
2022/12/30 06:21:49;;;;;;;4.43;1.23;;;8.60;99.90;;;;;;10516968;28;20047;-64
2022/12/30 06:26:50;;;;;;;5.03;1.38;;;8.60;99.90;;;;;;10520452;28;20032;-64
2022/12/30 06:31:50;;;;;;;5.45;1.40;;;9.10;99.90;;;;;;10525371;28;20039;-64
2022/12/30 06:36:51;;;;;;;3.58;1.10;;;8.50;99.90;;;;;;10525210;28;20153;-64
2022/12/30 06:41:52;;;;;;;4.60;1.20;;;8.50;99.90;;;;;;10527607;28;20096;-66
2022/12/30 06:46:52;;;;;;;2.85;1.10;;;8.70;99.90;;;;;;10532300;28;20023;-65
2022/12/30 06:51:53;;;;;;;5.28;1.10;;;8.50;99.90;;;;;;10534357;28;20036;-66
2022/12/30 06:56:53;;;;;;;3.42;0.98;;;8.50;99.90;;;;;;10533060;28;20130;-64
2022/12/30 07:01:54;;;;;;;7.32;1.55;;;8.50;99.90;;;;;;10530167;28;20024;-64
2022/12/30 07:06:54;;;;;;;3.15;0.93;;;8.50;99.90;;;;;;10538055;28;20036;-65
2022/12/30 07:11:55;;;;;;;4.90;1.10;;;8.40;99.90;;;;;;10540139;28;20086;-64
2022/12/30 07:16:56;;;;;;;4.60;1.50;;;8.50;99.90;;;;;;10536387;28;20025;-64
2022/12/30 07:21:58;;;;;;;3.63;1.20;;;8.50;99.90;;;;;;10540934;28;20166;-64
2022/12/30 07:26:58;;;;;;;3.88;1.45;;;8.40;99.90;;;;;;10540992;28;20053;-66
2022/12/30 07:31:59;;;;;;;6.80;1.85;;;8.40;99.90;;;;;;10538483;28;20146;-64
2022/12/30 07:37:00;;;;;;;4.32;1.40;;;8.40;99.90;;;;;;10538738;28;20016;-64
2022/12/30 07:42:01;;;;;;;7.75;1.30;;;8.40;99.90;;;;;;10540880;28;20036;-66
2022/12/30 07:47:01;;;;;;;3.60;1.27;;;8.40;99.90;;;;;;10517687;28;20611;-64
2022/12/30 07:52:04;;;;;;;2.65;0.98;;;8.40;99.90;;;;;;10512274;28;20093;-65
2022/12/30 07:57:05;;;;;;;3.17;1.38;;;8.40;99.90;;;;;;10514051;28;20028;-63
2022/12/30 08:02:07;;;;;;;4.22;1.35;;;8.40;99.90;;;;;;10524536;28;20024;-64
2022/12/30 08:07:08;;;;;;;4.68;1.17;;;8.30;99.90;;;;;;10521506;28;20093;-64
2022/12/30 08:12:16;;;;;;;5.20;1.47;;;8.30;99.90;;;;;;10516875;28;20119;-62
2022/12/30 08:17:17;;;;;;;5.28;1.50;;;8.30;99.90;;;;;;10513931;28;20468;-64
2022/12/30 08:22:17;;;;;;;5.97;1.70;;;8.30;99.90;;;;;;10514574;28;20031;-64
2022/12/30 08:27:18;;;;;;;8.85;1.63;;;8.30;99.90;;;;;;10522025;28;20024;-63
2022/12/30 08:32:18;;;;;;;7.68;1.80;;;8.30;99.90;;;;;;10517048;28;20035;-64
2022/12/30 08:37:19;;;;;;;6.72;1.40;;;8.30;99.90;;;;;;10519381;28;20032;-64
2022/12/30 08:42:20;;;;;;;4.35;1.45;;;8.30;99.90;;;;;;10511023;28;20107;-65
2022/12/30 08:47:20;;;;;;;4.18;1.55;;;8.30;99.90;;;;;;10508516;28;20020;-68
2022/12/30 08:52:21;;;;;;;3.25;1.08;;;8.30;99.90;;;;;;11139936;22;20080;-63
2022/12/30 08:57:22;;;;;;;4.93;1.38;;;8.30;99.90;;;;;;10426077;28;20013;-63
2022/12/30 09:02:22;;;;;;;5.50;1.67;;;8.30;99.90;;;;;;10445135;28;20025;-64
2022/12/30 09:07:23;;;;;;;5.07;1.50;;;8.30;99.90;;;;;;10457840;28;20032;-65
2022/12/30 09:12:23;;;;;;;2.50;1.38;;;8.30;99.90;;;;;;10457958;28;20060;-65
2022/12/30 09:17:24;;;;;;;6.25;2.08;;;8.30;99.90;;;;;;10457748;28;20029;-65
2022/12/30 09:22:24;;;;;;;4.68;1.55;;;8.30;99.90;;;;;;10457764;28;20353;-63
2022/12/30 09:27:25;;;;;;;5.97;1.33;;;8.30;99.90;;;;;;10456478;28;20021;-64
2022/12/30 09:32:26;;;;;;;9.48;1.60;;;8.30;99.90;;;;;;10457028;28;20037;-64
2022/12/30 09:37:26;;;;;;;6.22;1.90;;;8.40;99.90;;;;;;10456138;28;20079;-63
2022/12/30 09:47:56;;;;;;;8.35;1.50;;;8.40;99.90;;;;;;10456543;28;20391;-63
2022/12/30 09:53:13;;;;;;;5.07;1.42;;;8.40;99.90;;;;;;10456249;28;20053;-63
2022/12/30 09:58:29;;;;;;;5.07;1.70;;;8.40;99.90;;;;;;10455780;28;20516;-64
2022/12/30 10:03:29;;;;;;;5.82;1.35;;;8.40;99.90;;;;;;10455382;28;20025;-64
2022/12/30 10:08:57;;;;;;;4.53;1.30;;;8.40;99.90;;;;;;10455025;28;20021;-62
2022/12/30 10:14:12;;;;;;;5.68;1.40;;;8.50;99.90;;;;;;10455628;28;20033;-64
2022/12/30 10:19:31;;;;;;;6.00;1.55;;;8.50;99.90;;;;;;10455525;28;20430;-64
2022/12/30 10:25:03;;;;;;;3.85;1.50;;;8.60;99.90;;;;;;10455142;28;20424;-64
2022/12/30 10:30:16;;;;;;;2.42;1.05;;;8.50;99.90;;;;;;10455103;28;20454;-64
2022/12/30 10:35:25;;;;;;;4.88;1.27;;;8.50;99.90;;;;;;10454542;28;20113;-65
2022/12/30 10:40:39;;;;;;;5.82;1.25;;;8.60;99.90;;;;;;10454704;28;20029;-64
2022/12/30 10:45:55;;;;;;;5.93;1.40;;;8.70;99.90;;;;;;10454257;28;20024;-64
2022/12/30 10:50:56;;;;;;;2.05;0.93;;;8.70;99.90;;;;;;10453225;28;20442;-64
2022/12/30 10:55:59;;;;;;;7.22;1.30;;;8.70;99.90;;;;;;10454355;28;20024;-65
2022/12/30 11:01:00;;;;;;;3.78;1.10;;;8.70;99.90;;;;;;10454819;28;20052;-64
2022/12/30 11:06:23;;;;;;;6.18;1.60;;;8.70;99.90;;;;;;10454206;28;20024;-65
2022/12/30 11:14:42;;;;;;;4.18;1.05;;;8.70;99.90;;;;;;10454329;28;20365;-64
2022/12/30 11:16:44;;;;;;;3.20;0.98;;;8.70;99.90;;;;;;10453972;28;20029;-64
2022/12/30 11:21:45;;;;;;;5.50;1.30;;;8.70;99.90;;;;;;10453932;28;20025;-65
2022/12/30 11:26:47;;;;;;;2.65;1.05;;;8.60;99.90;;;;;;10453620;28;20496;-64
2022/12/30 11:31:51;;;;;;;2.47;0.90;;;8.70;99.90;;;;;;10453609;28;20115;-63
2022/12/30 11:36:51;;;;;;;2.47;1.08;;;8.70;99.90;;;;;;10453328;28;20025;-66
2022/12/30 11:41:57;;;;;;;4.32;1.50;;;8.70;99.90;;;;;;10453371;28;20029;-65
2022/12/30 11:47:05;;;;;;;1.60;0.90;;;8.70;99.90;;;;;;10453644;28;20477;-63
2022/12/30 11:52:07;;;;;;;5.30;1.33;;;8.70;99.90;;;;;;10453001;28;20083;-64
2022/12/30 11:57:29;;;;;;;2.20;1.00;;;8.70;99.90;;;;;;10452223;28;20025;-65
2022/12/30 12:02:39;;;;;;;2.47;0.88;;;8.70;99.90;;;;;;10461083;28;20075;-64
2022/12/30 12:07:47;;;;;;;4.13;1.10;;;8.70;99.90;;;;;;10461112;28;20083;-65
2022/12/30 12:12:55;;;;;;;3.40;1.00;;;8.70;99.90;;;;;;10460589;28;20044;-64
2022/12/30 12:18:05;;;;;;;2.97;0.90;;;8.70;99.90;;;;;;10460532;28;20146;-64
2022/12/30 12:23:25;;;;;;;6.00;1.25;;;8.70;99.90;;;;;;10460236;28;20063;-64
2022/12/30 12:28:26;;;;;;;5.00;1.00;;;8.70;99.90;;;;;;10460273;28;20044;-63
2022/12/30 12:33:47;;;;;;;4.15;0.90;;;8.70;99.90;;;;;;10460093;28;20040;-64
2022/12/30 12:38:59;;;;;;;7.55;2.13;;;8.70;99.90;;;;;;10459306;28;20025;-64
2022/12/30 12:44:28;;;;;;;4.32;0.90;;;8.70;99.90;;;;;;10459099;28;20090;-64
2022/12/30 12:49:53;;;;;;;5.13;0.93;;;8.80;99.90;;;;;;10459786;28;20060;-63
2022/12/30 12:55:34;;;;;;;2.58;0.80;;;9.80;99.90;;;;;;10459165;28;20064;-64
2022/12/30 13:00:43;;;;;;;4.13;0.80;;;8.80;99.90;;;;;;10458163;28;20108;-65
2022/12/30 13:06:18;;;;;;;7.82;1.42;;;8.80;99.90;;;;;;10458489;28;20032;-64
2022/12/30 13:11:38;;;;;;;7.05;1.20;;;8.80;99.90;;;;;;10456588;28;20037;-64
2022/12/30 13:16:43;;;;;;;5.93;1.17;;;8.70;99.90;;;;;;10473062;28;20025;-63
2022/12/30 13:21:47;;;;;;;1.98;0.75;;;8.70;99.90;;;;;;10457650;28;20029;-62
2022/12/30 13:26:48;;;;;;;2.50;0.80;;;8.70;99.90;;;;;;10457021;28;20359;-62
2022/12/30 13:32:03;;;;;;;2.55;0.73;;;8.70;99.90;;;;;;10456429;28;20040;-63
2022/12/30 13:37:23;;;;;;;4.05;0.70;;;8.80;99.90;;;;;;10457033;28;20423;-65
2022/12/30 13:42:40;;;;;;;3.45;1.13;;;8.80;99.90;;;;;;10457230;28;20103;-61
2022/12/30 13:47:42;;;;;;;5.28;1.17;;;8.90;99.90;;;;;;10456488;28;20039;-64
2022/12/30 13:52:48;;;;;;;3.65;1.05;;;8.90;99.90;;;;;;10456146;28;20048;-68
2022/12/30 13:58:08;;;;;;;7.50;1.38;;;9.90;99.90;;;;;;10456451;28;20111;-61
2022/12/30 14:03:24;;;;;;;2.97;1.00;;;8.90;99.90;;;;;;10456092;28;20044;-62
2022/12/30 14:08:24;;;;;;;5.15;1.25;;;9.00;99.90;;;;;;10456425;28;20025;-62
2022/12/30 14:13:30;;;;;;;6.30;0.68;;;9.00;99.90;;;;;;10455854;28;20040;-61
2022/12/30 14:18:48;;;;;;;2.58;0.98;;;9.00;99.90;;;;;;10455483;28;20121;-61
2022/12/30 14:23:52;;;;;;;2.28;0.77;;;9.00;99.90;;;;;;10455030;28;20021;-61
2022/12/30 14:28:53;;;;;;;3.95;0.90;;;9.00;99.90;;;;;;10454874;28;20025;-61
2022/12/30 14:33:58;;;;;;;3.30;0.75;;;9.00;99.90;;;;;;10454821;28;20386;-61
2022/12/30 14:39:02;;;;;;;7.93;1.20;;;9.00;99.90;;;;;;10454314;28;20384;-64
2022/12/30 14:44:11;;;;;;;6.32;1.92;;;9.10;99.90;;;;;;10455028;28;20025;-63
2022/12/30 14:49:35;;;;;;;3.38;1.00;;;9.10;99.90;;;;;;10454205;28;20113;-62
2022/12/30 14:55:08;;;;;;;3.58;0.90;;;9.00;99.90;;;;;;10455252;28;20105;-61
2022/12/30 15:00:12;;;;;;;3.90;0.90;;;9.00;99.90;;;;;;10454127;28;20040;-61
2022/12/30 15:05:18;;;;;;;6.18;1.08;;;9.00;99.90;;;;;;10453705;28;20035;-62
2022/12/30 15:10:36;;;;;;;3.33;1.10;;;9.00;99.90;;;;;;10453707;28;20041;-62
2022/12/30 15:15:39;;;;;;;4.97;1.00;;;9.00;99.90;;;;;;10453181;28;20025;-60
2022/12/30 15:20:39;;;;;;;2.33;0.68;;;9.10;99.90;;;;;;10452849;28;20503;-61
2022/12/30 15:25:40;;;;;;;2.55;0.95;;;9.00;99.90;;;;;;10452276;28;20092;-60
2022/12/30 15:30:48;;;;;;;4.57;1.00;;;9.00;99.90;;;;;;10454587;28;20451;-60
2022/12/30 15:35:50;;;;;;;1.73;0.90;;;9.00;99.90;;;;;;10452325;28;20039;-61
2022/12/30 15:40:53;;;;;;;2.28;1.05;;;9.00;99.90;;;;;;10452414;28;20068;-61
2022/12/30 15:45:58;;;;;;;2.40;0.90;;;9.00;99.90;;;;;;10451895;28;20021;-62
2022/12/30 15:51:15;;;;;;;3.03;1.30;;;8.60;99.90;;;;;;10451779;28;20558;-61
2022/12/30 15:56:17;;;;;;;1.73;1.08;;;9.00;99.90;;;;;;10452130;28;20025;-62
2022/12/30 16:01:21;;;;;;;1.88;0.77;;;9.00;99.90;;;;;;10452460;28;20036;-63
2022/12/30 16:06:22;;;;;;;1.88;1.33;;;9.00;99.90;;;;;;10450659;28;20377;-61
2022/12/30 16:11:33;;;;;;;1.65;1.02;;;9.00;99.90;;;;;;10451346;28;20041;-60
2022/12/30 16:16:34;;;;;;;2.75;1.30;;;9.00;99.90;;;;;;10452036;28;20465;-61
2022/12/30 16:21:37;;;;;;;1.73;1.17;;;9.10;99.90;;;;;;10451843;28;20025;-60
2022/12/30 16:26:38;;;;;;;2.85;1.00;;;9.10;99.90;;;;;;10451788;28;20028;-60
2022/12/30 16:31:38;;;;;;;2.72;1.08;;;9.10;99.90;;;;;;10451584;28;20094;-61
2022/12/30 16:36:39;;;;;;;2.47;1.10;;;9.20;99.90;;;;;;10450921;28;20021;-61
2022/12/30 16:41:40;;;;;;;1.60;1.20;;;9.20;99.90;;;;;;10451719;28;20025;-61
2022/12/30 16:46:41;;;;;;;3.42;1.20;;;9.20;99.90;;;;;;10454840;28;20021;-60
2022/12/30 16:51:51;;;;;;;1.85;1.25;;;9.30;99.90;;;;;;10456841;28;20118;-60
2022/12/30 16:56:53;;;;;;;2.55;1.23;;;9.30;99.90;;;;;;10458714;28;20477;-60
2022/12/30 17:01:59;;;;;;;2.42;1.33;;;9.30;99.90;;;;;;10457616;28;20017;-62
2022/12/30 17:07:00;;;;;;;2.70;1.08;;;9.30;99.90;;;;;;10458151;28;20104;-61
2022/12/30 17:12:02;;;;;;;1.45;1.00;;;9.30;99.90;;;;;;10458254;28;20124;-63
2022/12/30 17:17:03;;;;;;;1.65;1.25;;;9.30;99.90;;;;;;10458101;28;20104;-62
2022/12/30 17:22:06;;;;;;;1.55;1.30;;;9.30;99.90;;;;;;10457916;28;20116;-62
2022/12/30 17:27:19;;;;;;;2.08;1.23;;;9.30;99.90;;;;;;10457957;28;20483;-63
2022/12/30 17:32:38;;;;;;;1.83;1.40;;;9.30;99.90;;;;;;10456474;28;20087;-62
2022/12/30 17:37:39;;;;;;;1.65;1.35;;;9.40;99.90;;;;;;10457403;28;20017;-64
2022/12/30 17:42:39;;;;;;;2.30;1.30;;;9.30;99.90;;;;;;10456891;28;20028;-63
2022/12/30 17:47:40;;;;;;;1.67;1.30;;;9.40;99.90;;;;;;10456948;28;20032;-62
2022/12/30 17:52:40;;;;;;;2.80;1.33;;;9.40;99.90;;;;;;10456378;28;20127;-62
2022/12/30 17:57:42;;;;;;;1.20;1.10;;;9.40;99.90;;;;;;10455571;28;20036;-61
2022/12/30 18:02:42;;;;;;;2.78;1.80;;;9.50;99.90;;;;;;10456132;28;20103;-61
2022/12/30 18:07:44;;;;;;;2.88;1.70;;;9.60;99.90;;;;;;10455345;28;20023;-61
2022/12/30 18:12:45;;;;;;;2.70;1.80;;;9.60;99.90;;;;;;10455635;28;20106;-62
2022/12/30 18:17:45;;;;;;;2.35;1.85;;;9.60;99.90;;;;;;10455422;28;20021;-64
2022/12/30 18:22:46;;;;;;;2.50;1.73;;;9.50;99.90;;;;;;10455426;28;20036;-63
2022/12/30 18:27:47;;;;;;;2.78;1.98;;;9.50;99.90;;;;;;10455487;28;20358;-62
2022/12/30 18:32:47;;;;;;;2.30;1.65;;;9.50;99.90;;;;;;10454648;28;20047;-62
2022/12/30 18:37:48;;;;;;;2.00;1.50;;;9.30;99.90;;;;;;10454707;28;20389;-61
2022/12/30 18:42:48;;;;;;;2.33;1.70;;;9.60;99.90;;;;;;10454727;28;20029;-64
2022/12/30 18:47:49;;;;;;;2.80;1.65;;;9.60;99.90;;;;;;10453977;28;20029;-60
2022/12/30 18:52:49;;;;;;;3.10;2.03;;;9.60;99.90;;;;;;10453699;28;20105;-61
2022/12/30 18:57:50;;;;;;;3.55;1.80;;;9.60;99.90;;;;;;10453775;28;20111;-61
2022/12/30 19:02:50;;;;;;;2.33;1.65;;;9.60;99.90;;;;;;10453506;28;20089;-61
2022/12/30 19:07:51;;;;;;;2.22;1.67;;;9.70;99.90;;;;;;10452773;28;20047;-61
2022/12/30 19:12:52;;;;;;;3.00;2.03;;;9.70;99.90;;;;;;10453416;28;20384;-61
2022/12/30 19:17:52;;;;;;;2.50;1.95;;;9.70;99.90;;;;;;10453415;28;20029;-61
2022/12/30 19:22:53;;;;;;;2.63;1.83;;;9.70;99.90;;;;;;10453523;28;20037;-61
2022/12/30 19:27:53;;;;;;;2.50;1.60;;;9.70;99.90;;;;;;10453755;28;20064;-61
2022/12/30 19:32:54;;;;;;;3.40;1.80;;;9.70;99.90;;;;;;10453103;28;20040;-61
2022/12/30 19:37:54;;;;;;;2.50;1.90;;;9.80;99.90;;;;;;10452840;28;20021;-61
2022/12/30 19:42:55;;;;;;;2.80;1.85;;;9.80;99.90;;;;;;10452986;28;20025;-61
2022/12/30 19:47:57;;;;;;;3.97;1.80;;;9.80;99.90;;;;;;10453256;28;20427;-61
2022/12/30 19:52:57;;;;;;;2.42;1.60;;;9.80;99.90;;;;;;10452523;28;20049;-61
2022/12/30 19:57:58;;;;;;;2.72;1.50;;;9.80;99.90;;;;;;10451269;28;20104;-61
2022/12/30 20:02:59;;;;;;;1.92;1.73;;;9.80;99.90;;;;;;10453041;28;20106;-61
2022/12/30 20:07:59;;;;;;;3.08;1.60;;;9.80;99.90;;;;;;10452575;28;20021;-61
2022/12/30 20:13:00;;;;;;;2.97;1.60;;;9.90;99.90;;;;;;10452770;28;20048;-61
2022/12/30 20:18:00;;;;;;;2.80;1.55;;;9.90;99.90;;;;;;10452798;28;20028;-61
2022/12/30 20:23:01;;;;;;;5.90;1.75;;;9.90;99.90;;;;;;10459426;28;20033;-61
2022/12/30 20:28:01;;;;;;;2.25;1.50;;;9.90;99.90;;;;;;10460351;28;20025;-61
2022/12/30 20:33:04;;;;;;;3.53;1.52;;;9.90;99.90;;;;;;10459969;28;20060;-61
2022/12/30 20:38:05;;;;;;;3.15;1.33;;;9.90;99.90;;;;;;10460188;28;20021;-61
2022/12/30 20:43:05;;;;;;;2.88;1.70;;;9.90;99.90;;;;;;10459542;28;20047;-61
2022/12/30 20:48:06;;;;;;;2.05;1.20;;;9.90;99.90;;;;;;10459134;28;20028;-61
2022/12/30 20:53:07;;;;;;;2.10;1.30;;;10.00;99.90;;;;;;10458798;28;20072;-60
2022/12/30 20:58:08;;;;;;;3.70;1.92;;;10.00;99.90;;;;;;10458764;28;20504;-61
2022/12/30 21:03:08;;;;;;;2.90;1.30;;;10.00;99.90;;;;;;10458868;28;20117;-61
2022/12/30 21:08:11;;;;;;;3.45;1.50;;;10.00;99.90;;;;;;10458856;28;20550;-60
2022/12/30 21:13:11;;;;;;;3.28;1.20;;;10.00;99.90;;;;;;10458654;28;20507;-61
2022/12/30 21:18:12;;;;;;;4.15;1.73;;;10.10;99.90;;;;;;10458325;28;20112;-61
2022/12/30 21:23:12;;;;;;;3.90;1.70;;;10.10;99.90;;;;;;10458339;28;20044;-61
2022/12/30 21:28:13;;;;;;;3.10;1.33;;;10.10;99.90;;;;;;10457883;28;20025;-61
2022/12/30 21:33:14;;;;;;;3.80;1.27;;;10.10;99.90;;;;;;10456993;28;20079;-60
2022/12/30 22:04:57;;;;;;;6.50;1.23;;;10.20;99.90;;;;;;10456748;28;20033;-61
2022/12/30 22:09:58;;;;;;;2.50;1.20;;;10.20;99.90;;;;;;10456358;28;20032;-61
2022/12/30 22:14:59;;;;;;;4.00;1.17;;;10.20;99.90;;;;;;10471739;28;20055;-61
2022/12/30 22:20:00;;;;;;;4.50;1.55;;;10.30;99.90;;;;;;10455772;28;20112;-61
2022/12/30 22:25:00;;;;;;;3.28;1.25;;;10.30;99.90;;;;;;10455659;28;20104;-61
2022/12/30 22:30:01;;;;;;;3.38;1.60;;;10.30;99.90;;;;;;10455686;28;20039;-61
2022/12/30 22:35:02;;;;;;;3.47;1.17;;;10.30;99.90;;;;;;10455276;28;20113;-61
2022/12/30 22:40:03;;;;;;;2.70;1.30;;;10.30;99.90;;;;;;10454874;28;20116;-61
2022/12/30 22:45:05;;;;;;;2.25;1.23;;;10.30;99.90;;;;;;10455062;28;20029;-61
2022/12/30 22:50:07;;;;;;;2.20;1.13;;;10.30;99.90;;;;;;10454210;28;20472;-61
2022/12/30 22:55:08;;;;;;;2.67;1.20;;;10.30;99.90;;;;;;10454430;28;20109;-61
2022/12/30 23:00:10;;;;;;;4.47;1.50;;;10.30;99.90;;;;;;10453843;28;20029;-61
2022/12/30 23:05:12;;;;;;;4.28;1.50;;;10.30;99.90;;;;;;10454013;28;20079;-61
2022/12/30 23:10:14;;;;;;;3.40;1.80;;;10.40;99.90;;;;;;10453661;28;20025;-61
2022/12/30 23:20:35;;;;;;;2.03;1.30;;;10.40;99.90;;;;;;10454404;28;20056;-61
2022/12/30 23:25:36;;;;;;;3.00;1.48;;;10.40;99.90;;;;;;10453864;28;20028;-61
2022/12/30 23:30:37;;;;;;;2.58;1.33;;;10.40;99.90;;;;;;10453794;28;20049;-61
2022/12/30 23:35:38;;;;;;;2.15;1.67;;;10.40;99.90;;;;;;10453776;28;20393;-61
2022/12/30 23:40:38;;;;;;;2.70;1.50;;;10.40;99.90;;;;;;10452194;28;20025;-61
2022/12/30 23:45:41;;;;;;;2.67;1.30;;;10.40;99.90;;;;;;10453654;28;20110;-61
2022/12/30 23:50:42;;;;;;;3.28;1.58;;;10.50;99.90;;;;;;10453193;28;20052;-61
2022/12/30 23:55:42;;;;;;;2.78;1.50;;;10.50;99.90;;;;;;10457116;28;20476;-61
